createdAt,value
2022-10-20T00:03:58.126Z,101539.00
2022-10-20T00:09:05.336Z,101546.66
2022-10-20T00:14:09.104Z,101534.13
2022-10-20T00:19:13.499Z,101537.34
2022-10-20T00:24:20.776Z,101530.47
2022-10-20T00:29:24.495Z,101528.37
2022-10-20T00:34:28.145Z,101518.59
2022-10-20T00:39:33.385Z,101521.34
2022-10-20T00:45:01.667Z,101519.47
2022-10-20T00:50:08.166Z,101503.06
2022-10-20T00:55:16.493Z,101507.59
2022-10-20T01:00:20.012Z,101489.62
2022-10-20T01:05:24.003Z,101493.50
2022-10-20T01:10:37.291Z,101485.50
2022-10-20T01:15:47.204Z,101458.13
2022-10-20T01:21:05.684Z,101454.81
2022-10-20T01:26:22.583Z,101450.37
2022-10-20T01:31:31.735Z,101458.59
2022-10-20T01:36:40.834Z,101463.09
2022-10-20T01:41:50.362Z,101453.44
2022-10-20T01:46:57.840Z,101447.69
2022-10-20T01:52:01.807Z,101430.41
2022-10-20T01:57:18.792Z,101428.94
2022-10-20T02:02:36.547Z,101432.91
2022-10-20T02:07:40.711Z,101427.88
2022-10-20T02:12:50.065Z,101422.41
2022-10-20T02:18:01.906Z,101392.16
2022-10-20T02:23:07.590Z,101385.13
2022-10-20T02:28:14.203Z,101365.50
2022-10-20T02:33:21.073Z,101355.31
2022-10-20T02:38:24.891Z,101350.94
2022-10-20T02:43:28.547Z,101343.16
2022-10-20T02:48:33.564Z,101320.81
2022-10-20T02:53:37.216Z,101319.09
2022-10-20T02:58:40.860Z,101311.59
2022-10-20T03:03:45.948Z,101308.91
2022-10-20T03:08:49.615Z,101297.44
2022-10-20T03:13:53.358Z,101288.06
2022-10-20T03:19:01.593Z,101275.22
2022-10-20T03:24:08.426Z,101299.00
2022-10-20T03:29:12.079Z,101281.94
2022-10-20T03:34:17.132Z,101277.41
2022-10-20T03:39:20.947Z,101269.00
2022-10-20T03:44:24.675Z,101261.25
2022-10-20T03:49:31.503Z,101260.41
2022-10-20T03:54:36.928Z,101243.47
2022-10-20T03:59:40.789Z,101237.31
2022-10-20T04:04:45.813Z,101235.62
2022-10-20T04:09:49.451Z,101237.47
2022-10-20T04:14:53.107Z,101225.19
2022-10-20T04:19:58.082Z,101222.91
2022-10-20T04:25:01.833Z,101218.94
2022-10-20T04:30:06.100Z,101206.75
2022-10-20T04:35:11.408Z,101207.78
2022-10-20T04:40:15.032Z,101210.50
2022-10-20T04:45:18.977Z,101224.50
2022-10-20T04:50:24.136Z,101220.56
2022-10-20T04:55:42.858Z,101188.72
2022-10-20T05:00:46.512Z,101182.72
2022-10-20T05:05:51.471Z,101179.41
2022-10-20T05:10:55.151Z,101190.56
2022-10-20T05:15:58.836Z,101178.16
2022-10-20T05:21:09.701Z,101151.59
2022-10-20T05:26:15.884Z,101138.44
2022-10-20T05:31:22.218Z,101157.50
2022-10-20T05:36:28.348Z,101160.84
2022-10-20T05:41:36.473Z,101149.31
2022-10-20T05:46:42.829Z,101143.34
2022-10-20T05:51:48.799Z,101162.97
2022-10-20T05:56:52.471Z,101160.38
2022-10-20T06:01:56.224Z,101155.22
2022-10-20T06:07:01.263Z,101146.00
2022-10-20T06:12:05.787Z,101138.53
2022-10-20T06:17:10.671Z,101141.31
2022-10-20T06:22:15.712Z,101153.59
2022-10-20T06:27:19.388Z,101158.91
2022-10-20T06:32:23.101Z,101141.06
2022-10-20T06:37:28.136Z,101134.34
2022-10-20T06:42:32.191Z,101127.06
2022-10-20T06:47:37.184Z,101125.31
2022-10-20T06:52:42.381Z,101129.75
2022-10-20T06:57:46.045Z,101109.16
2022-10-20T07:02:49.804Z,101119.94
2022-10-20T07:07:54.995Z,101121.00
2022-10-20T07:12:58.757Z,101117.56
2022-10-20T07:18:02.519Z,101114.66
2022-10-20T07:23:07.542Z,101118.41
2022-10-20T07:28:11.195Z,101121.37
2022-10-20T07:33:14.854Z,101120.78
2022-10-20T07:38:19.893Z,101128.06
2022-10-20T07:43:23.631Z,101130.22
2022-10-20T07:48:27.597Z,101126.69
2022-10-20T07:53:32.633Z,101129.84
2022-10-20T07:58:36.307Z,101132.97
2022-10-20T08:03:40.201Z,101128.19
2022-10-20T08:08:45.257Z,101119.75
2022-10-20T08:13:49.072Z,101118.44
2022-10-20T08:19:06.741Z,101115.37
2022-10-20T08:24:11.736Z,101113.97
2022-10-20T08:29:15.441Z,101105.94
2022-10-20T08:34:19.123Z,101103.84
2022-10-20T08:39:24.458Z,101105.00
2022-10-20T08:44:31.460Z,101096.03
2022-10-20T08:49:36.580Z,101083.94
2022-10-20T08:54:41.752Z,101072.25
2022-10-20T08:59:45.520Z,101059.38
2022-10-20T09:04:52.592Z,101060.06
2022-10-20T09:10:05.621Z,101061.66
2022-10-20T09:15:12.095Z,101066.94
2022-10-20T09:20:21.760Z,101072.59
2022-10-20T09:25:27.599Z,101059.88
2022-10-20T09:30:35.457Z,101069.66
2022-10-20T09:35:40.868Z,101079.22
2022-10-20T09:40:54.764Z,101078.50
2022-10-20T09:46:04.925Z,101076.69
2022-10-20T09:51:15.667Z,101085.38
2022-10-20T09:56:27.307Z,101077.50
2022-10-20T10:01:31.462Z,101078.38
2022-10-20T10:06:42.887Z,101078.38
2022-10-20T10:11:48.042Z,101086.91
2022-10-20T10:16:51.992Z,101060.94
2022-10-20T10:21:58.163Z,101056.53
2022-10-20T10:27:03.421Z,101060.00
2022-10-20T10:32:16.149Z,101040.91
2022-10-20T10:42:44.124Z,101016.44
2022-10-20T10:48:16.941Z,101006.28
2022-10-20T10:53:29.859Z,101021.88
2022-10-20T10:58:46.006Z,101035.59
2022-10-20T11:04:07.477Z,101028.69
2022-10-20T11:09:23.848Z,101022.34
2022-10-20T11:14:42.823Z,101021.41
2022-10-20T11:20:12.164Z,101019.56
2022-10-20T11:25:28.340Z,101008.53
2022-10-20T11:30:35.302Z,101013.13
2022-10-20T11:35:43.315Z,101012.50
2022-10-20T11:40:53.649Z,101015.41
2022-10-20T11:46:03.597Z,101011.78
2022-10-20T11:51:46.280Z,101003.19
2022-10-20T11:56:59.835Z,101006.50
2022-10-20T12:02:25.461Z,101003.84
2022-10-20T12:08:24.740Z,101006.50
2022-10-20T12:13:36.511Z,101021.00
2022-10-20T12:19:07.661Z,101022.28
2022-10-20T12:24:44.131Z,101019.28
2022-10-20T12:30:00.638Z,100996.97
2022-10-20T12:35:31.601Z,100989.13
2022-10-20T12:40:45.191Z,100975.87
2022-10-20T12:45:49.162Z,100970.28
2022-10-20T12:50:55.040Z,100972.13
2022-10-20T12:56:00.921Z,100945.69
2022-10-20T13:01:09.833Z,100941.63
2022-10-20T13:06:43.741Z,100930.06
2022-10-20T13:11:57.686Z,100929.81
2022-10-20T13:17:13.777Z,100924.59
2022-10-20T13:22:38.951Z,100903.56
2022-10-20T13:27:42.744Z,100875.03
2022-10-20T13:33:11.465Z,100850.69
2022-10-20T13:38:27.521Z,100849.00
2022-10-20T13:43:39.336Z,100840.91
2022-10-20T13:48:56.884Z,100860.13
2022-10-20T13:54:05.645Z,100834.84
2022-10-20T14:04:29.698Z,100831.47
2022-10-20T14:09:35.038Z,100827.09
2022-10-20T14:14:44.638Z,100818.31
2022-10-20T14:19:48.476Z,100816.56
2022-10-20T14:24:55.726Z,100813.06
2022-10-20T14:30:00.833Z,100807.34
2022-10-20T14:35:19.919Z,100809.91
2022-10-20T14:40:27.807Z,100809.38
2022-10-20T14:50:40.975Z,100794.75
2022-10-20T14:55:46.119Z,100795.63
2022-10-20T15:00:49.948Z,100785.75
2022-10-20T15:05:53.938Z,100785.69
2022-10-20T15:10:59.597Z,100781.97
2022-10-20T15:16:04.694Z,100781.03
2022-10-20T15:21:09.144Z,100782.66
2022-10-20T15:26:15.323Z,100781.25
2022-10-20T15:31:23.382Z,100784.12
2022-10-20T15:36:31.897Z,100785.00
2022-10-20T15:41:37.864Z,100778.78
2022-10-20T15:46:42.220Z,100777.84
2022-10-20T15:51:47.181Z,100776.06
2022-10-20T15:56:52.252Z,100778.66
2022-10-20T16:01:56.005Z,100772.50
2022-10-20T16:07:02.813Z,100766.34
2022-10-20T16:12:08.438Z,100767.91
2022-10-20T16:17:12.148Z,100769.50
2022-10-20T16:22:15.936Z,100770.34
2022-10-20T16:27:21.018Z,100766.88
2022-10-20T16:32:25.032Z,100770.19
2022-10-20T16:37:28.789Z,100768.41
2022-10-20T16:42:33.877Z,100782.31
2022-10-20T16:47:37.852Z,100775.16
2022-10-20T16:52:41.719Z,100778.47
2022-10-20T16:57:46.712Z,100782.72
2022-10-20T17:02:52.911Z,100774.75
2022-10-20T17:07:56.644Z,100781.56
2022-10-20T17:13:01.797Z,100782.25
2022-10-20T17:18:05.586Z,100763.94
2022-10-20T17:23:09.288Z,100758.56
2022-10-20T17:28:14.312Z,100762.87
2022-10-20T17:33:18.138Z,100756.59
2022-10-20T17:38:22.574Z,100752.22
2022-10-20T17:43:28.981Z,100751.22
2022-10-20T17:48:33.113Z,100748.38
2022-10-20T17:53:38.440Z,100753.47
2022-10-20T17:58:45.699Z,100742.84
2022-10-20T18:03:54.456Z,100752.34
2022-10-20T18:08:59.873Z,100754.91
2022-10-20T18:14:06.043Z,100759.97
2022-10-20T18:19:14.849Z,100751.87
2022-10-20T18:24:19.411Z,100756.94
2022-10-20T18:29:25.519Z,100761.09
2022-10-20T18:34:29.291Z,100756.69
2022-10-20T18:39:33.086Z,100773.88
2022-10-20T18:44:38.080Z,100768.63
2022-10-20T18:49:41.883Z,100766.91
2022-10-20T18:54:45.604Z,100758.91
2022-10-20T18:59:51.768Z,100752.78
2022-10-20T19:04:55.999Z,100755.22
2022-10-20T19:09:59.686Z,100757.88
2022-10-20T19:15:05.141Z,100750.81
2022-10-20T19:20:09.252Z,100734.31
2022-10-20T19:25:12.934Z,100736.94
2022-10-20T19:30:18.449Z,100735.84
2022-10-20T19:35:22.348Z,100719.13
2022-10-20T19:40:28.329Z,100694.69
2022-10-20T19:45:33.738Z,100690.16
2022-10-20T19:50:37.527Z,100689.97
2022-10-20T19:55:41.224Z,100676.75
2022-10-20T20:00:47.152Z,100674.97
2022-10-20T20:05:58.139Z,100666.22
2022-10-20T20:11:03.427Z,100672.25
2022-10-20T20:16:09.868Z,100678.09
2022-10-20T20:21:14.414Z,100685.09
2022-10-20T20:26:18.164Z,100684.13
2022-10-20T20:31:24.187Z,100680.63
2022-10-20T20:36:28.703Z,100684.13
2022-10-20T20:41:32.407Z,100696.22
2022-10-20T20:46:37.896Z,100701.22
2022-10-20T20:51:41.558Z,100705.44
2022-10-20T20:56:45.249Z,100695.06
2022-10-20T21:01:50.383Z,100696.66
2022-10-20T21:07:02.071Z,100699.22
2022-10-20T21:12:06.329Z,100708.81
2022-10-20T21:17:11.459Z,100701.75
2022-10-20T21:22:15.154Z,100695.69
2022-10-20T21:27:18.822Z,100683.47
2022-10-20T21:32:23.924Z,100688.72
2022-10-20T21:37:29.096Z,100691.94
2022-10-20T21:42:32.775Z,100699.69
2022-10-20T21:47:37.876Z,100711.81
2022-10-20T21:52:41.517Z,100709.94
2022-10-20T21:57:45.269Z,100707.31
2022-10-20T22:02:51.017Z,100700.34
2022-10-20T22:07:54.688Z,100692.47
2022-10-20T22:12:58.406Z,100704.53
2022-10-20T22:18:03.492Z,100698.34
2022-10-20T22:23:07.135Z,100687.97
2022-10-20T22:28:10.807Z,100693.88
2022-10-20T22:33:15.825Z,100688.66
2022-10-20T22:38:19.627Z,100678.19
2022-10-20T22:43:23.267Z,100671.09
2022-10-20T22:48:28.444Z,100665.28
2022-10-20T22:53:32.190Z,100666.31
2022-10-20T22:58:35.944Z,100665.47
2022-10-20T23:03:41.588Z,100658.50
2022-10-20T23:08:46.933Z,100661.22
2022-10-20T23:13:51.146Z,100662.97
2022-10-20T23:18:56.372Z,100664.75
2022-10-20T23:24:00.042Z,100678.59
2022-10-20T23:29:03.656Z,100687.91
2022-10-20T23:34:09.808Z,100684.44
2022-10-20T23:39:13.553Z,100694.87
2022-10-20T23:44:17.281Z,100715.59
2022-10-20T23:49:22.260Z,100709.38
2022-10-20T23:54:26.088Z,100707.75
2022-10-20T23:59:29.710Z,100698.28
